Time;durP1;ratioP1;P1;durP2;ratioP2;P2;SDS_P1;SDS_P2;PMS_P1;PMS_P2;Temp;Humidity;BMP_temperature;BMP_pressure;BME280_temperature;BME280_humidity;BME280_pressure;Samples;Min_cycle;Max_cycle;Signal;HPM_P1;HPM_P2
2023/01/19 00:03:23;;;;;;;1999.90;999.90;;;;;;;1.64;100.00;99988.66;10495840;28;20430;-68
2023/01/19 00:08:26;;;;;;;1999.90;999.90;;;;;;;1.57;100.00;99989.75;10480515;28;20048;-68
2023/01/19 00:13:28;;;;;;;1999.90;999.90;;;;;;;1.70;100.00;99980.72;10497165;28;20109;-68
2023/01/19 00:18:31;;;;;;;1999.90;999.90;;;;;;;1.57;100.00;99984.59;10500095;28;20048;-67
2023/01/19 00:23:33;;;;;;;1999.90;999.90;;;;;;;1.52;100.00;99982.16;10505401;28;20082;-68
2023/01/19 00:28:35;;;;;;;1999.90;999.90;;;;;;;1.44;100.00;99979.81;10505471;28;20483;-68
2023/01/19 00:33:38;;;;;;;1999.90;999.90;;;;;;;1.52;100.00;99979.59;10505162;28;20395;-68
2023/01/19 00:38:40;;;;;;;1999.90;999.90;;;;;;;1.63;100.00;99987.81;10504921;28;20049;-68
2023/01/19 00:43:43;;;;;;;1999.90;999.90;;;;;;;1.52;100.00;99983.91;10504029;28;20114;-68
2023/01/19 00:48:45;;;;;;;1999.90;999.90;;;;;;;1.54;100.00;99982.13;10487602;28;20045;-68
2023/01/19 00:53:47;;;;;;;1999.90;999.90;;;;;;;1.61;100.00;99986.19;10504316;28;20044;-69
2023/01/19 00:58:49;;;;;;;1999.90;999.90;;;;;;;1.71;100.00;99990.13;10504096;28;20051;-68
2023/01/19 01:03:52;;;;;;;1999.90;999.90;;;;;;;1.62;100.00;99972.41;10504044;28;20052;-68
2023/01/19 01:08:54;;;;;;;1999.90;999.90;;;;;;;1.60;100.00;99974.19;10504521;28;20049;-68
2023/01/19 01:13:57;;;;;;;1999.90;999.90;;;;;;;1.54;100.00;99975.22;10503828;28;20045;-68
2023/01/19 01:19:00;;;;;;;1999.90;999.90;;;;;;;1.63;100.00;99976.63;10504101;28;20048;-68
2023/01/19 01:24:02;;;;;;;1999.90;999.90;;;;;;;1.73;100.00;99985.78;10499230;28;20040;-68
2023/01/19 01:29:07;;;;;;;1999.90;999.90;;;;;;;1.70;100.00;99985.03;10501250;28;20442;-68
2023/01/19 01:34:09;;;;;;;1999.90;999.90;;;;;;;1.56;100.00;99990.66;10502841;28;20048;-68
2023/01/19 01:39:11;;;;;;;1999.90;999.90;;;;;;;1.57;100.00;99984.59;10484549;28;20553;-68
2023/01/19 01:44:48;;;;;;;1999.90;999.90;;;;;;;1.55;100.00;99991.56;10484502;28;20090;-67
2023/01/19 01:50:14;;;;;;;1999.90;999.90;;;;;;;1.48;100.00;99984.00;10502960;28;20052;-67
2023/01/19 01:55:17;;;;;;;1999.90;999.90;;;;;;;1.43;100.00;99979.88;10484408;28;20471;-67
2023/01/19 02:00:20;;;;;;;1999.90;999.90;;;;;;;1.58;100.00;99973.38;10483876;28;20109;-67
2023/01/19 02:05:30;;;;;;;1999.90;999.90;;;;;;;1.53;100.00;99975.25;10502298;28;20134;-67
2023/01/19 02:15:57;;;;;;;1999.90;999.90;;;;;;;1.17;100.00;99983.31;10500266;28;20052;-67
2023/01/19 02:21:34;;;;;;;1999.90;999.90;;;;;;;1.13;100.00;99990.31;10481619;28;20136;-67
2023/01/19 02:26:42;;;;;;;1999.90;999.90;;;;;;;1.13;100.00;99987.72;10483149;28;20048;-67
2023/01/19 02:31:45;;;;;;;1999.90;999.90;;;;;;;0.92;100.00;99996.94;10499692;28;20528;-68
2023/01/19 02:36:56;;;;;;;1999.90;999.90;;;;;;;0.73;100.00;99994.94;10482426;28;20150;-67
2023/01/19 02:42:02;;;;;;;1999.90;999.90;;;;;;;0.78;100.00;99992.22;10500240;28;20048;-67
2023/01/19 02:47:04;;;;;;;1999.90;999.90;;;;;;;0.72;100.00;100002.69;10499987;28;20422;-67
2023/01/19 02:52:15;;;;;;;1999.90;999.90;;;;;;;0.88;100.00;100009.09;10498997;28;20052;-67
2023/01/19 02:57:42;;;;;;;1999.90;999.90;;;;;;;0.70;100.00;100013.06;10464412;28;20053;-67
2023/01/19 03:02:56;;;;;;;1999.90;999.90;;;;;;;0.79;100.00;100024.84;10498931;28;20052;-67
2023/01/19 03:08:24;;;;;;;1999.90;999.90;;;;;;;0.64;100.00;100012.38;10500259;28;20075;-67
2023/01/19 03:13:33;;;;;;;1999.90;999.90;;;;;;;0.58;100.00;100028.03;10496832;28;20056;-67
2023/01/19 03:18:36;;;;;;;1999.90;999.90;;;;;;;0.49;100.00;100024.81;10498127;28;20106;-67
2023/01/19 03:23:41;;;;;;;1999.90;999.90;;;;;;;0.45;100.00;100032.69;10480705;28;20049;-67
2023/01/19 03:28:44;;;;;;;1999.90;999.90;;;;;;;0.58;100.00;100039.19;10480885;28;20074;-67
2023/01/19 03:33:54;;;;;;;1999.90;999.90;;;;;;;0.48;100.00;100041.16;10497353;28;20066;-67
2023/01/19 03:38:57;;;;;;;1999.90;999.90;;;;;;;0.29;100.00;100050.28;10476916;28;20106;-67
2023/01/19 03:44:00;;;;;;;1999.90;999.90;;;;;;;0.28;100.00;100064.03;10463748;28;20408;-67
2023/01/19 03:49:02;;;;;;;1999.90;999.90;;;;;;;0.21;100.00;100065.94;10464170;28;20048;-67
2023/01/19 03:54:06;;;;;;;1999.90;999.90;;;;;;;0.23;100.00;100077.03;10478643;28;20098;-67
2023/01/19 03:59:08;;;;;;;1999.90;999.90;;;;;;;0.17;100.00;100072.91;10497607;28;20052;-67
2023/01/19 04:04:12;;;;;;;1999.90;999.90;;;;;;;0.12;100.00;100082.47;10495642;28;20090;-67
2023/01/19 04:09:14;;;;;;;1999.90;999.90;;;;;;;0.20;100.00;100099.44;10497126;28;20048;-67
2023/01/19 04:14:20;;;;;;;1999.90;999.90;;;;;;;0.24;100.00;100077.91;10478215;28;20044;-67
2023/01/19 04:19:22;;;;;;;1999.90;999.90;;;;;;;0.28;100.00;100089.78;10497603;28;20438;-67
2023/01/19 04:24:25;;;;;;;1999.90;999.90;;;;;;;0.26;100.00;100079.53;10497146;28;20120;-67
2023/01/19 04:29:27;;;;;;;1999.90;999.90;;;;;;;0.22;100.00;100084.78;10496739;28;20106;-67
2023/01/19 04:34:29;;;;;;;1999.90;999.90;;;;;;;0.25;100.00;100098.44;10496071;28;20041;-66
2023/01/19 04:39:31;;;;;;;1999.90;999.90;;;;;;;0.23;100.00;100097.63;10496921;28;20060;-66
2023/01/19 04:44:34;;;;;;;1999.90;999.90;;;;;;;0.24;100.00;100098.50;10496778;28;20487;-66
2023/01/19 04:49:36;;;;;;;1999.90;999.90;;;;;;;0.27;100.00;100099.25;10495712;28;20114;-66
2023/01/19 04:54:38;;;;;;;1999.90;999.90;;;;;;;0.27;100.00;100098.38;10496281;28;20051;-66
2023/01/19 04:59:41;;;;;;;1999.90;999.90;;;;;;;0.27;100.00;100088.97;10497093;28;20048;-66
2023/01/19 05:04:43;;;;;;;1999.90;999.90;;;;;;;0.37;100.00;100076.69;10499943;28;20044;-66
2023/01/19 05:09:45;;;;;;;1999.90;999.90;;;;;;;0.31;100.00;100064.81;10503694;28;20056;-66
2023/01/19 05:14:48;;;;;;;1999.90;999.90;;;;;;;0.30;100.00;100086.31;10503614;28;20044;-67
2023/01/19 05:19:50;;;;;;;1999.90;999.90;;;;;;;0.38;100.00;100098.13;10484819;28;20107;-66
2023/01/19 05:24:53;;;;;;;1999.90;999.90;;;;;;;0.38;100.00;100105.84;10503583;28;20051;-66
2023/01/19 05:29:55;;;;;;;1999.90;999.90;;;;;;;0.40;100.00;100099.75;10502994;28;20050;-66
2023/01/19 05:34:58;;;;;;;1999.90;999.90;;;;;;;0.46;100.00;100109.06;10511258;22;20056;-66
2023/01/19 05:40:00;;;;;;;1999.90;999.90;;;;;;;0.46;100.00;100124.53;10503478;28;20060;-66
2023/01/19 05:45:03;;;;;;;1999.90;999.90;;;;;;;0.49;100.00;100129.59;10458533;28;20461;-66
2023/01/19 05:50:06;;;;;;;1999.90;999.90;;;;;;;0.55;100.00;100125.13;10502356;28;20406;-66
2023/01/19 05:55:08;;;;;;;1999.90;999.90;;;;;;;0.55;100.00;100132.00;10502753;28;20063;-66
2023/01/19 06:00:12;;;;;;;1999.90;999.90;;;;;;;0.51;100.00;100151.00;10501286;28;20475;-66
2023/01/19 06:05:14;;;;;;;1999.90;999.90;;;;;;;0.52;100.00;100156.13;10484727;28;20051;-66
2023/01/19 06:10:17;;;;;;;1999.90;999.90;;;;;;;0.57;100.00;100170.59;10501576;28;20059;-66
2023/01/19 06:15:19;;;;;;;1999.90;999.90;;;;;;;0.54;100.00;100158.66;10499680;28;20538;-66
2023/01/19 06:20:22;;;;;;;1999.90;999.90;;;;;;;0.66;100.00;100158.31;10501163;28;20045;-66
2023/01/19 06:25:24;;;;;;;1999.90;999.90;;;;;;;0.69;100.00;100165.97;10501637;28;20051;-66
2023/01/19 06:30:27;;;;;;;1999.90;999.90;;;;;;;0.76;100.00;100176.09;10498980;28;20056;-66
2023/01/19 06:35:30;;;;;;;1999.90;999.90;;;;;;;0.66;100.00;100186.66;10499652;28;20566;-66
2023/01/19 06:40:32;;;;;;;1999.90;999.90;;;;;;;0.70;100.00;100190.84;10500875;28;20044;-66
2023/01/19 06:45:35;;;;;;;1999.90;999.90;;;;;;;0.64;100.00;100203.91;10500594;28;20055;-66
2023/01/19 06:50:37;;;;;;;1999.90;999.90;;;;;;;0.66;100.00;100221.91;10481381;28;20044;-66
2023/01/19 06:55:40;;;;;;;1999.90;999.90;;;;;;;0.68;100.00;100223.53;10498353;28;20044;-67
2023/01/19 07:00:42;;;;;;;1999.90;999.90;;;;;;;0.67;100.00;100226.16;10500148;28;20044;-67
2023/01/19 07:05:44;;;;;;;1999.90;999.90;;;;;;;0.59;100.00;100233.22;10499290;28;20044;-67
2023/01/19 07:10:47;;;;;;;1999.90;999.90;;;;;;;0.55;100.00;100240.19;10499091;28;20045;-67
2023/01/19 07:16:11;;;;;;;1999.90;999.90;;;;;;;0.57;100.00;100251.28;10499143;28;20136;-67
2023/01/19 07:21:14;;;;;;;1999.90;999.90;;;;;;;0.50;100.00;100258.31;10441701;28;20393;-67
2023/01/19 07:26:19;;;;;;;1999.90;999.90;;;;;;;0.62;100.00;100271.78;10471938;28;20058;-67
2023/01/19 07:31:22;;;;;;;1999.90;999.90;;;;;;;0.62;100.00;100276.94;10498548;28;20045;-67
2023/01/19 07:36:24;;;;;;;1999.90;999.90;;;;;;;0.51;100.00;100283.22;10480689;28;20110;-66
2023/01/19 07:41:27;;;;;;;1999.90;999.90;;;;;;;0.51;100.00;100290.94;10497923;28;20044;-67
2023/01/19 07:46:29;;;;;;;1999.90;999.90;;;;;;;0.67;100.00;100301.75;10497305;28;20541;-67
2023/01/19 07:51:31;;;;;;;1999.90;999.90;;;;;;;0.67;100.00;100309.47;10499095;28;20177;-67
2023/01/19 07:56:33;;;;;;;1999.90;999.90;;;;;;;0.68;100.00;100315.47;10479029;28;20553;-67
2023/01/19 08:01:36;;;;;;;1999.90;999.90;;;;;;;0.71;100.00;100323.97;10497741;28;20479;-66
2023/01/19 08:06:39;;;;;;;1999.90;999.90;;;;;;;0.74;100.00;100320.47;10497693;28;20048;-67
2023/01/19 08:11:42;;;;;;;1999.90;999.90;;;;;;;0.79;100.00;100340.97;10497359;28;20139;-67
2023/01/19 08:16:44;;;;;;;1999.90;999.90;;;;;;;0.77;100.00;100351.28;10480197;28;20044;-66
2023/01/19 08:21:46;;;;;;;1999.90;999.90;;;;;;;0.79;100.00;100349.56;10479654;28;20445;-67
2023/01/19 08:26:49;;;;;;;1999.90;999.90;;;;;;;0.88;100.00;100358.78;10496194;28;20499;-67
2023/01/19 08:31:54;;;;;;;1999.90;999.90;;;;;;;0.95;100.00;100362.06;10497732;28;20044;-67
2023/01/19 08:36:57;;;;;;;1999.90;999.90;;;;;;;1.02;100.00;100361.00;10497097;28;20048;-67
2023/01/19 08:41:59;;;;;;;1999.90;999.90;;;;;;;1.11;100.00;100373.69;10463163;28;20048;-67
2023/01/19 08:47:02;;;;;;;1999.90;999.90;;;;;;;1.07;100.00;100388.38;10498432;28;20097;-67
2023/01/19 08:52:04;;;;;;;1999.90;999.90;;;;;;;1.10;100.00;100388.28;10504603;28;20052;-68
2023/01/19 08:57:06;;;;;;;1999.90;999.90;;;;;;;1.32;100.00;100387.75;10504066;28;20048;-67
2023/01/19 09:02:10;;;;;;;1999.90;999.90;;;;;;;1.45;100.00;100390.88;10504822;28;20063;-67
2023/01/19 09:07:12;;;;;;;1999.90;999.90;;;;;;;1.55;100.00;100396.66;10502416;28;20381;-67
2023/01/19 09:12:15;;;;;;;1999.90;999.90;;;;;;;1.87;100.00;100403.50;10499568;28;20053;-67
2023/01/19 09:17:17;;;;;;;1999.90;999.90;;;;;;;1.95;100.00;100395.53;10504774;28;20098;-68
2023/01/19 09:22:20;;;;;;;1999.90;999.90;;;;;;;2.03;100.00;100399.63;10502069;28;20052;-67
2023/01/19 09:27:22;;;;;;;1999.90;999.90;;;;;;;1.99;100.00;100407.50;10502227;28;20423;-68
2023/01/19 09:32:24;;;;;;;1999.90;999.90;;;;;;;2.04;100.00;100406.47;10471526;28;20075;-68
2023/01/19 09:37:27;;;;;;;1999.90;999.90;;;;;;;2.06;100.00;100409.00;10443705;28;20049;-68
2023/01/19 09:42:42;;;;;;;1999.90;999.90;;;;;;;2.18;100.00;100420.72;10461970;28;20070;-68
2023/01/19 09:47:46;;;;;;;1999.90;999.90;;;;;;;2.74;100.00;100428.53;10443629;28;20052;-68
2023/01/19 09:53:12;;;;;;;1999.90;999.90;;;;;;;3.83;100.00;100429.28;10443312;28;20056;-68
2023/01/19 09:58:17;;;;;;;1999.90;999.90;;;;;;;5.96;100.00;100407.91;10443692;28;20091;-68
2023/01/19 10:03:20;;;;;;;1999.90;999.90;;;;;;;4.14;100.00;100416.97;10467351;28;20053;-68
2023/01/19 10:08:40;;;;;;;1999.90;999.90;;;;;;;2.64;100.00;100429.72;10483961;28;20076;-68
2023/01/19 10:13:48;;;;;;;1999.90;999.90;;;;;;;2.55;100.00;100442.91;10484368;28;20414;-68
2023/01/19 10:18:54;;;;;;;1999.90;999.90;;;;;;;3.06;100.00;100455.13;10483539;28;20385;-68
2023/01/19 10:24:10;;;;;;;1999.90;999.90;;;;;;;4.14;100.00;100445.47;10501160;28;20404;-68
2023/01/19 10:29:21;;;;;;;1999.90;999.90;;;;;;;2.84;100.00;100451.50;10501972;28;20052;-68
2023/01/19 10:34:23;;;;;;;1999.90;999.90;;;;;;;2.71;100.00;100449.31;10500551;28;20442;-68
2023/01/19 10:39:26;;;;;;;1999.90;999.90;;;;;;;2.72;100.00;100471.69;10501219;28;20052;-68
2023/01/19 10:44:35;;;;;;;1999.90;999.90;;;;;;;3.01;100.00;100461.31;10483143;28;20491;-68
2023/01/19 10:49:41;;;;;;;1999.90;999.90;;;;;;;2.65;100.00;100452.06;10483030;28;20056;-68
2023/01/19 10:54:44;;;;;;;1999.90;999.90;;;;;;;3.12;100.00;100454.91;10482295;28;20090;-68
2023/01/19 10:59:49;;;;;;;1999.90;999.90;;;;;;;3.24;100.00;100447.66;10481866;28;20407;-68
2023/01/19 11:04:58;;;;;;;1999.90;999.90;;;;;;;3.26;100.00;100454.50;10481394;28;20458;-68
2023/01/19 11:10:19;;;;;;;1999.90;999.90;;;;;;;3.36;100.00;100462.78;10479323;28;20510;-68
2023/01/19 11:15:22;;;;;;;1999.90;999.90;;;;;;;3.54;100.00;100461.31;10499614;28;20083;-68
2023/01/19 11:20:33;;;;;;;1999.90;999.90;;;;;;;3.56;100.00;100464.69;10498606;28;20437;-68
2023/01/19 11:25:36;;;;;;;1999.90;999.90;;;;;;;3.36;100.00;100460.19;10480264;28;20052;-68
2023/01/19 11:30:52;;;;;;;1999.90;999.90;;;;;;;3.14;100.00;100473.84;10480875;28;20118;-68
2023/01/19 11:36:20;;;;;;;1999.90;999.90;;;;;;;3.42;100.00;100466.91;10480830;28;20052;-68
2023/01/19 11:41:28;;;;;;;1999.90;999.90;;;;;;;3.33;100.00;100470.66;10480129;28;20446;-68
2023/01/19 11:46:33;;;;;;;1999.90;999.90;;;;;;;3.49;100.00;100471.00;10464512;28;20048;-68
2023/01/19 11:51:45;;;;;;;1999.90;999.90;;;;;;;4.17;100.00;100469.50;10479171;28;20062;-68
2023/01/19 11:56:48;;;;;;;1999.90;999.90;;;;;;;3.84;100.00;100468.97;10479052;28;20048;-69
2023/01/19 12:01:56;;;;;;;1999.90;999.90;;;;;;;3.32;100.00;100462.03;10477340;28;20049;-69
2023/01/19 12:07:05;;;;;;;1999.90;999.90;;;;;;;4.02;100.00;100457.13;10458748;28;20067;-69
2023/01/19 12:12:28;;;;;;;1999.90;999.90;;;;;;;4.93;100.00;100448.53;10479499;28;20488;-69
2023/01/19 12:17:35;;;;;;;1999.90;999.90;;;;;;;3.87;100.00;100453.31;10485859;28;20052;-69
2023/01/19 12:22:48;;;;;;;1999.90;999.90;;;;;;;4.21;100.00;100462.47;10484405;28;20045;-69
2023/01/19 12:27:51;;;;;;;1999.90;999.90;;;;;;;4.02;100.00;100464.88;10488275;28;20049;-69
2023/01/19 12:33:22;;;;;;;1999.90;999.90;;;;;;;3.67;100.00;100461.78;10445978;28;20049;-69
2023/01/19 12:38:43;;;;;;;1999.90;999.90;;;;;;;3.93;100.00;100467.78;10482617;28;20549;-69
2023/01/19 12:43:47;;;;;;;1999.90;999.90;;;;;;;3.99;100.00;100467.56;10487732;28;20053;-69
2023/01/19 12:48:50;;;;;;;1999.90;999.90;;;;;;;3.64;100.00;100467.03;10487867;28;20293;-69
2023/01/19 12:54:00;;;;;;;1999.90;999.90;;;;;;;3.64;100.00;100470.47;10486721;28;20449;-69
2023/01/19 12:59:03;;;;;;;1999.90;999.90;;;;;;;3.32;100.00;100462.03;10487749;28;20040;-69
2023/01/19 13:04:29;;;;;;;1999.90;999.90;;;;;;;3.40;100.00;100469.56;10486782;28;20399;-69
2023/01/19 13:09:34;;;;;;;1999.90;999.90;;;;;;;3.52;100.00;100463.97;10486143;28;20041;-69
2023/01/19 13:14:37;;;;;;;1999.90;999.90;;;;;;;3.65;100.00;100471.34;10486754;28;20449;-69
2023/01/19 13:19:46;;;;;;;1999.90;999.90;;;;;;;3.45;100.00;100464.25;10504330;28;20052;-69
2023/01/19 13:25:12;;;;;;;1999.90;999.90;;;;;;;3.46;100.00;100469.38;10469123;28;20044;-69
2023/01/19 13:30:16;;;;;;;1999.90;999.90;;;;;;;3.76;100.00;100463.19;10485775;28;20502;-69
2023/01/19 13:35:19;;;;;;;1999.90;999.90;;;;;;;3.70;100.00;100472.03;10485772;28;20230;-69
2023/01/19 13:40:37;;;;;;;1999.90;999.90;;;;;;;3.49;100.00;100477.00;10485650;28;20442;-69
2023/01/19 13:45:40;;;;;;;1999.90;999.90;;;;;;;3.66;100.00;100484.19;10485578;28;20045;-69
2023/01/19 13:51:03;;;;;;;1999.90;999.90;;;;;;;3.72;100.00;100473.66;10492834;22;20491;-68
2023/01/19 13:56:16;;;;;;;1999.90;999.90;;;;;;;3.67;100.00;100479.91;10485301;28;20063;-68
2023/01/19 14:01:20;;;;;;;1999.90;999.90;;;;;;;3.51;100.00;100472.66;10484490;28;20476;-69
2023/01/19 14:06:37;;;;;;;1999.90;999.90;;;;;;;3.79;100.00;100481.22;10502487;28;20078;-68
2023/01/19 14:11:40;;;;;;;1999.90;999.90;;;;;;;3.82;100.00;100488.88;10484818;28;20048;-68
2023/01/19 14:16:42;;;;;;;1999.90;999.90;;;;;;;3.62;100.00;100486.97;10502136;28;20090;-69
2023/01/19 14:21:44;;;;;;;1999.90;999.90;;;;;;;3.57;100.00;100497.47;10501330;28;20388;-68
2023/01/19 14:26:52;;;;;;;1999.90;999.90;;;;;;;3.62;100.00;100505.09;10501691;28;20074;-69
2023/01/19 14:32:05;;;;;;;1999.90;999.90;;;;;;;3.14;100.00;100507.47;10483341;28;20080;-69
2023/01/19 14:37:15;;;;;;;1999.90;999.90;;;;;;;3.03;100.00;100506.13;10482102;28;20071;-69
2023/01/19 14:42:26;;;;;;;1999.90;999.90;;;;;;;2.89;100.00;100509.97;10483483;28;20060;-69
2023/01/19 14:47:36;;;;;;;1999.90;999.90;;;;;;;3.26;100.00;100514.00;10500916;28;20094;-69
2023/01/19 14:52:41;;;;;;;1999.90;999.90;;;;;;;2.93;100.00;100515.88;10457981;28;20057;-69
2023/01/19 14:57:43;;;;;;;1999.90;999.90;;;;;;;2.87;100.00;100519.47;10459316;28;20051;-69
2023/01/19 15:02:46;;;;;;;1999.90;999.90;;;;;;;2.66;100.00;100528.72;10457876;28;20061;-69
2023/01/19 15:07:49;;;;;;;1999.90;999.90;;;;;;;3.05;100.00;100530.19;10459307;28;20076;-69
2023/01/19 15:12:52;;;;;;;1999.90;999.90;;;;;;;2.88;100.00;100544.47;10457270;28;20056;-68
2023/01/19 15:17:55;;;;;;;1999.90;999.90;;;;;;;2.77;100.00;100549.09;10455427;28;20049;-68
2023/01/19 15:22:57;;;;;;;1999.90;999.90;;;;;;;2.94;100.00;100557.22;10455657;28;20492;-69
2023/01/19 15:28:00;;;;;;;1999.90;999.90;;;;;;;2.79;100.00;100568.00;10459167;28;20086;-69
2023/01/19 15:33:26;;;;;;;1999.90;999.90;;;;;;;2.48;100.00;100568.03;10390799;28;20415;-68
2023/01/19 15:38:28;;;;;;;1999.90;999.90;;;;;;;2.35;100.00;100573.50;10454949;28;20431;-69
2023/01/19 15:43:31;;;;;;;1999.90;999.90;;;;;;;2.37;100.00;100579.50;10456706;28;20049;-69
2023/01/19 15:48:33;;;;;;;1999.90;999.90;;;;;;;2.35;100.00;100590.75;10458073;28;20044;-69
2023/01/19 15:53:36;;;;;;;1999.90;999.90;;;;;;;2.30;100.00;100590.03;10480909;28;20044;-69
2023/01/19 15:58:38;;;;;;;1999.90;999.90;;;;;;;2.18;100.00;100592.03;10476810;28;20384;-69
2023/01/19 16:03:41;;;;;;;1999.90;999.90;;;;;;;2.28;100.00;100591.81;10498421;28;20059;-68
2023/01/19 16:08:44;;;;;;;1999.90;999.90;;;;;;;2.09;100.00;100586.28;10478084;28;20556;-69
2023/01/19 16:13:46;;;;;;;1999.90;999.90;;;;;;;2.15;100.00;100576.66;10478984;28;20491;-69
2023/01/19 16:18:49;;;;;;;1999.90;999.90;;;;;;;2.18;100.00;100592.03;10497870;28;20048;-69
2023/01/19 16:23:51;;;;;;;1999.90;999.90;;;;;;;1.84;100.00;100607.53;10479484;28;20056;-68
2023/01/19 16:29:09;;;;;;;1999.90;999.90;;;;;;;1.85;100.00;100607.50;10512056;28;20046;-67
2023/01/19 16:34:11;;;;;;;1999.90;999.90;;;;;;;1.62;100.00;100620.13;10499828;28;20423;-67
2023/01/19 16:39:14;;;;;;;1999.90;999.90;;;;;;;1.52;100.00;100624.63;10456174;28;20052;-67
2023/01/19 16:44:17;;;;;;;1999.90;999.90;;;;;;;1.45;100.00;100628.25;10477764;28;20049;-67
2023/01/19 16:49:23;;;;;;;1999.90;999.90;;;;;;;1.43;100.00;100632.56;10495478;28;20057;-67
2023/01/19 16:54:28;;;;;;;1999.90;999.90;;;;;;;1.15;100.00;100650.38;10479076;28;20067;-67
2023/01/19 16:59:31;;;;;;;1999.90;999.90;;;;;;;0.97;100.00;100644.69;10496315;28;20044;-67
2023/01/19 17:04:33;;;;;;;1999.90;999.90;;;;;;;0.86;100.00;100654.41;10504965;28;20055;-67
2023/01/19 17:09:35;;;;;;;1999.90;999.90;;;;;;;0.99;100.00;100665.31;10504806;28;20044;-67
2023/01/19 17:14:38;;;;;;;1999.90;999.90;;;;;;;1.07;100.00;100660.84;10501360;28;20496;-67
2023/01/19 17:19:40;;;;;;;1999.90;999.90;;;;;;;0.83;100.00;100664.78;10503558;28;20040;-66
2023/01/19 17:24:43;;;;;;;1999.90;999.90;;;;;;;0.85;100.00;100674.16;10503479;28;20502;-67
2023/01/19 17:29:47;;;;;;;1999.90;999.90;;;;;;;0.87;100.00;100676.69;10526443;28;20395;-66
2023/01/19 17:34:51;;;;;;;1999.90;999.90;;;;;;;0.82;100.00;100679.34;10504412;28;20411;-67
2023/01/19 17:39:54;;;;;;;1999.90;999.90;;;;;;;0.88;100.00;100686.16;10521354;28;20491;-67
2023/01/19 17:44:56;;;;;;;1999.90;999.90;;;;;;;0.72;100.00;100693.31;10515715;28;20101;-67
2023/01/19 17:50:00;;;;;;;1999.90;999.90;;;;;;;0.70;100.00;100693.31;10520540;28;20406;-67
2023/01/19 17:55:02;;;;;;;1999.90;999.90;;;;;;;0.63;100.00;100704.63;10500410;28;20406;-67
2023/01/19 18:00:06;;;;;;;1999.90;999.90;;;;;;;0.45;100.00;100703.22;10500173;28;20051;-66
2023/01/19 18:05:11;;;;;;;1999.90;999.90;;;;;;;0.62;100.00;100704.66;10483838;28;20098;-67
2023/01/19 18:10:14;;;;;;;1999.90;999.90;;;;;;;0.57;100.00;100701.31;10456654;28;20055;-67
2023/01/19 18:15:17;;;;;;;1999.90;999.90;;;;;;;0.58;100.00;100697.88;10500887;28;20045;-66
2023/01/19 18:20:19;;;;;;;1999.90;999.90;;;;;;;0.69;100.00;100703.66;10499192;28;20049;-66
2023/01/19 18:25:21;;;;;;;1999.90;999.90;;;;;;;0.52;100.00;100703.97;10500519;28;20109;-66
2023/01/19 18:30:24;;;;;;;1999.90;999.90;;;;;;;0.49;100.00;100710.03;10499757;28;20063;-66
2023/01/19 18:35:27;;;;;;;1999.90;999.90;;;;;;;0.46;100.00;100707.50;10501318;28;20052;-66
2023/01/19 18:40:30;;;;;;;1999.90;999.90;;;;;;;0.45;100.00;100715.25;10500561;28;20388;-66
2023/01/19 18:45:32;;;;;;;1999.90;999.90;;;;;;;0.45;100.00;100722.97;10499875;28;20098;-66
2023/01/19 18:50:36;;;;;;;1999.90;999.90;;;;;;;0.49;100.00;100728.06;10498691;28;20056;-66
2023/01/19 18:55:38;;;;;;;1999.90;999.90;;;;;;;0.40;100.00;100732.50;10499296;28;20044;-66
2023/01/19 19:00:40;;;;;;;1999.90;999.90;;;;;;;0.42;100.00;100728.19;10494759;28;20106;-66
2023/01/19 19:05:43;;;;;;;1999.90;999.90;;;;;;;0.21;100.00;100730.22;10499512;28;20086;-66
2023/01/19 19:10:45;;;;;;;1999.90;999.90;;;;;;;0.25;100.00;100734.44;10498590;28;20420;-66
2023/01/19 19:15:47;;;;;;;1999.90;999.90;;;;;;;0.27;100.00;100737.00;10498741;28;20055;-66
2023/01/19 19:20:50;;;;;;;1999.90;999.90;;;;;;;0.21;100.00;100742.25;10499580;28;20048;-66
2023/01/19 19:25:52;;;;;;;1999.90;999.90;;;;;;;0.21;100.00;100748.25;10479093;28;20068;-66
2023/01/19 19:31:06;;;;;;;1999.90;999.90;;;;;;;0.05;100.00;100757.06;10496729;28;20055;-66
2023/01/19 19:36:11;;;;;;;1999.90;999.90;;;;;;;0.16;100.00;100761.19;10465032;28;20044;-66
2023/01/19 19:41:20;;;;;;;1999.90;999.90;;;;;;;0.09;100.00;100767.31;10480830;28;20048;-66
2023/01/19 19:46:23;;;;;;;1999.90;999.90;;;;;;;0.21;100.00;100775.75;10476139;28;20048;-66
2023/01/19 19:51:26;;;;;;;1999.90;999.90;;;;;;;0.14;100.00;100778.41;10487268;22;20044;-64
2023/01/19 19:56:30;;;;;;;1999.90;999.90;;;;;;;0.22;100.00;100774.84;10497337;28;20495;-64
2023/01/19 20:01:32;;;;;;;1999.90;999.90;;;;;;;0.03;100.00;100775.13;10480732;28;20048;-64
2023/01/19 20:06:40;;;;;;;1999.90;999.90;;;;;;;0.11;100.00;100790.47;10479804;28;20041;-64
2023/01/19 20:11:45;;;;;;;1999.90;999.90;;;;;;;-0.01;100.00;100791.50;10479763;28;20048;-64
2023/01/19 20:16:47;;;;;;;1999.90;999.90;;;;;;;-0.06;100.00;100799.28;10496312;28;20076;-64
2023/01/19 20:21:50;;;;;;;1999.90;999.90;;;;;;;0.10;100.00;100806.78;10509516;28;20452;-64
2023/01/19 20:26:53;;;;;;;1999.90;999.90;;;;;;;0.22;100.00;100826.34;10490352;28;20045;-64
2023/01/19 20:31:56;;;;;;;1999.90;999.90;;;;;;;0.37;100.00;100839.03;10480193;28;20052;-64
2023/01/19 20:37:00;;;;;;;1999.90;999.90;;;;;;;0.30;100.00;100845.13;10502385;28;20048;-64
2023/01/19 20:42:04;;;;;;;1999.90;999.90;;;;;;;0.28;100.00;100855.44;10484841;28;20044;-64
2023/01/19 20:47:08;;;;;;;1999.90;999.90;;;;;;;0.18;100.00;100864.16;10504723;28;20045;-64
2023/01/19 20:52:10;;;;;;;1999.90;999.90;;;;;;;0.13;100.00;100860.81;10503299;28;20060;-64
2023/01/19 20:57:12;;;;;;;1999.90;999.90;;;;;;;0.26;100.00;100864.06;10516117;28;20048;-64
2023/01/19 21:02:15;;;;;;;1999.90;999.90;;;;;;;0.36;100.00;100875.94;10515774;28;20510;-64
2023/01/19 21:07:18;;;;;;;1999.90;999.90;;;;;;;0.24;100.00;100878.72;10503888;28;20052;-64
2023/01/19 21:12:22;;;;;;;1999.90;999.90;;;;;;;0.43;100.00;100884.44;10504725;28;20060;-64
2023/01/19 21:17:24;;;;;;;1999.90;999.90;;;;;;;0.43;100.00;100897.31;10503808;28;20380;-64
2023/01/19 21:22:26;;;;;;;1999.90;999.90;;;;;;;0.49;100.00;100905.81;10502887;28;20071;-64
2023/01/19 21:27:28;;;;;;;1999.90;999.90;;;;;;;0.46;100.00;100902.44;10486850;28;20048;-64
2023/01/19 21:32:31;;;;;;;1999.90;999.90;;;;;;;0.53;100.00;100909.19;10482146;28;20049;-64
2023/01/19 21:37:33;;;;;;;1999.90;999.90;;;;;;;0.57;100.00;100910.84;10469085;28;20048;-64
2023/01/19 21:42:36;;;;;;;1999.90;999.90;;;;;;;0.61;100.00;100916.84;10486280;28;20059;-64
2023/01/19 21:47:38;;;;;;;1999.90;999.90;;;;;;;0.70;100.00;100920.09;10502049;28;20086;-64
2023/01/19 21:52:40;;;;;;;1999.90;999.90;;;;;;;0.53;100.00;100927.25;10459761;28;20057;-64
2023/01/19 21:57:43;;;;;;;1999.90;999.90;;;;;;;0.60;100.00;100931.44;10459910;28;20111;-64
2023/01/19 22:02:45;;;;;;;1999.90;999.90;;;;;;;0.65;100.00;100939.94;10458595;28;20480;-64
2023/01/19 22:08:05;;;;;;;1999.90;999.90;;;;;;;0.49;100.00;100936.75;10460831;28;20057;-64
2023/01/19 22:13:08;;;;;;;1999.90;999.90;;;;;;;0.58;100.00;100940.91;10461064;28;20544;-64